Time;durP1;ratioP1;P1;durP2;ratioP2;P2;SDS_P1;SDS_P2;PMS_P1;PMS_P2;Temp;Humidity;BMP_temperature;BMP_pressure;BME280_temperature;BME280_humidity;BME280_pressure;Samples;Min_cycle;Max_cycle;Signal;HPM_P1;HPM_P2
2022/03/22 00:01:24;;;;;;;13.93;11.63;;;;;;;-1.22;100.00;97953.53;5029297;28;20453;-73
2022/03/22 00:03:51;;;;;;;12.53;11.03;;;;;;;-1.07;100.00;97971.41;5030476;28;20961;-73
2022/03/22 00:06:18;;;;;;;12.70;10.90;;;;;;;-1.22;100.00;97963.13;5030619;28;20542;-73
2022/03/22 00:08:46;;;;;;;15.43;11.77;;;;;;;-1.18;100.00;97956.53;5026321;28;20431;-73
2022/03/22 00:11:13;;;;;;;14.07;12.50;;;;;;;-1.14;100.00;97946.50;5009355;28;20542;-74
2022/03/22 00:13:44;;;;;;;17.57;11.00;;;;;;;-1.10;100.00;97968.44;5026346;28;20458;-74
2022/03/22 00:16:12;;;;;;;13.70;10.73;;;;;;;-1.09;100.00;97951.84;5030589;28;20446;-74
2022/03/22 00:18:59;;;;;;;13.80;11.43;;;;;;;-1.09;100.00;97972.63;5032891;28;20561;-74
2022/03/22 00:21:26;;;;;;;17.23;12.70;;;;;;;-1.07;100.00;97942.06;5033173;28;20493;-73
2022/03/22 00:23:54;;;;;;;16.50;14.80;;;;;;;-0.80;100.00;97966.81;5049495;28;20438;-73
2022/03/22 00:26:21;;;;;;;14.00;12.00;;;;;;;-0.85;100.00;97968.44;5031806;28;20482;-73
2022/03/22 00:28:47;;;;;;;17.57;11.27;;;;;;;-0.96;100.00;97973.31;5014259;28;20998;-73
2022/03/22 00:31:15;;;;;;;12.90;10.60;;;;;;;-1.58;100.00;97891.94;5013603;28;20452;-74
2022/03/22 00:33:42;;;;;;;15.20;11.20;;;;;;;-1.23;100.00;97936.38;5023986;28;20978;-73
2022/03/22 00:36:10;;;;;;;18.83;12.33;;;;;;;-1.23;100.00;97944.16;5044289;28;20542;-74
2022/03/22 00:38:38;;;;;;;13.73;11.47;;;;;;;-1.29;100.00;97952.78;5032463;28;20517;-74
2022/03/22 00:41:04;;;;;;;13.03;11.63;;;;;;;-1.11;100.00;97966.84;5032433;28;20485;-74
2022/03/22 00:43:34;;;;;;;10.23;8.27;;;;;;;-1.81;100.00;97904.63;5032875;28;20435;-74
2022/03/22 00:46:02;;;;;;;11.90;10.50;;;;;;;-1.43;100.00;97968.66;5032241;28;20489;-74
2022/03/22 00:48:29;;;;;;;12.73;10.00;;;;;;;-1.24;100.00;97954.75;5032300;28;20434;-74
2022/03/22 00:50:56;;;;;;;19.90;10.87;;;;;;;-1.46;100.00;97959.50;5032227;28;20494;-74
2022/03/22 00:53:23;;;;;;;15.67;10.07;;;;;;;-1.43;100.00;97959.06;5032239;28;20786;-74
2022/03/22 00:55:50;;;;;;;16.57;12.20;;;;;;;-1.39;100.00;97969.81;5032144;28;20487;-74
2022/03/22 00:58:17;;;;;;;13.40;11.27;;;;;;;-1.44;100.00;97949.72;5032045;28;20474;-74
2022/03/22 01:00:45;;;;;;;18.07;11.63;;;;;;;-1.41;100.00;97956.28;5015724;28;20989;-74
2022/03/22 01:03:13;;;;;;;16.53;11.90;;;;;;;-1.36;100.00;97965.00;5033368;28;20485;-74
2022/03/22 01:05:40;;;;;;;18.47;12.93;;;;;;;-1.70;100.00;97927.31;5031835;28;20550;-74
2022/03/22 01:08:12;;;;;;;12.73;10.53;;;;;;;-1.55;100.00;97933.00;5031977;28;20530;-74
2022/03/22 01:10:42;;;;;;;19.07;13.50;;;;;;;-1.42;100.00;97960.66;5027274;28;20447;-74
2022/03/22 01:13:11;;;;;;;19.80;12.40;;;;;;;-1.62;100.00;97958.16;5025202;28;20463;-74
2022/03/22 01:15:42;;;;;;;14.57;10.70;;;;;;;-1.57;100.00;97963.53;5031764;28;20890;-74
2022/03/22 01:18:11;;;;;;;18.30;9.90;;;;;;;-1.77;100.00;97930.94;5030813;28;20491;-74
2022/03/22 01:20:43;;;;;;;11.97;10.27;;;;;;;-1.66;100.00;97954.41;5020506;28;20437;-74
2022/03/22 01:23:11;;;;;;;11.73;10.53;;;;;;;-1.59;100.00;97962.16;5055988;28;20423;-74
2022/03/22 01:25:39;;;;;;;34.77;11.00;;;;;;;-1.83;100.00;97938.53;5031494;28;20985;-74
2022/03/22 01:28:08;;;;;;;12.40;10.30;;;;;;;-1.80;100.00;97945.91;5019407;28;20420;-74
2022/03/22 01:30:36;;;;;;;16.53;10.10;;;;;;;-1.69;100.00;97962.59;5033005;28;20430;-74
2022/03/22 01:33:04;;;;;;;12.30;9.47;;;;;;;-1.59;100.00;97965.56;5028272;28;20483;-74
2022/03/22 01:35:31;;;;;;;11.57;9.73;;;;;;;-2.10;100.00;97931.88;5021666;28;20928;-74
2022/03/22 01:37:59;;;;;;;15.50;9.17;;;;;;;-2.02;100.00;97960.13;5027736;28;20533;-74
2022/03/22 01:40:27;;;;;;;10.97;9.87;;;;;;;-1.87;100.00;97952.94;5011599;28;20431;-74
2022/03/22 01:42:54;;;;;;;11.27;10.10;;;;;;;-2.25;100.00;97885.50;5029116;28;20466;-74
2022/03/22 01:45:21;;;;;;;10.33;9.33;;;;;;;-1.99;100.00;97931.25;5031291;28;20447;-74
2022/03/22 01:47:49;;;;;;;15.73;11.27;;;;;;;-1.88;100.00;97942.75;5026688;28;20463;-74
2022/03/22 01:50:19;;;;;;;19.77;10.60;;;;;;;-2.52;100.00;97928.81;5022908;28;20497;-74
2022/03/22 01:52:46;;;;;;;13.33;10.43;;;;;;;-2.03;100.00;97949.97;5031046;28;20473;-74
2022/03/22 01:55:16;;;;;;;19.63;12.43;;;;;;;-2.12;100.00;97921.72;5030971;28;20458;-74
2022/03/22 01:57:43;;;;;;;20.33;13.10;;;;;;;-1.90;100.00;97944.75;5032196;28;20883;-74
2022/03/22 02:00:13;;;;;;;20.37;14.13;;;;;;;-2.01;100.00;97941.00;5030933;28;20438;-74
2022/03/22 02:05:51;;;;;;;14.90;12.00;;;;;;;-2.33;100.00;97932.34;5030777;28;20889;-74
2022/03/22 02:08:20;;;;;;;14.10;11.10;;;;;;;-2.49;100.00;97891.38;5030902;28;20512;-74
2022/03/22 02:10:47;;;;;;;20.40;13.20;;;;;;;-2.35;100.00;97892.91;5004216;28;20494;-74
2022/03/22 02:13:14;;;;;;;23.83;15.20;;;;;;;-2.19;100.00;97905.41;5030794;28;20474;-74
2022/03/22 02:15:43;;;;;;;14.73;12.60;;;;;;;-2.24;100.00;97894.06;5031924;28;20451;-74
2022/03/22 02:18:09;;;;;;;19.40;10.67;;;;;;;-2.15;100.00;97921.31;5030395;28;20546;-74
2022/03/22 02:20:36;;;;;;;15.87;10.60;;;;;;;-2.32;100.00;97909.84;5030701;28;20460;-74
2022/03/22 02:23:40;;;;;;;18.73;10.67;;;;;;;-2.75;100.00;97920.69;5030556;28;20435;-74
2022/03/22 02:26:07;;;;;;;11.50;9.07;;;;;;;-2.50;100.00;97920.84;5017476;28;20872;-74
2022/03/22 02:28:34;;;;;;;16.60;11.13;;;;;;;-2.41;100.00;97928.19;5024044;28;20536;-74
2022/03/22 02:31:01;;;;;;;13.07;10.20;;;;;;;-2.26;100.00;97925.38;5007349;28;20533;-74
2022/03/22 02:33:28;;;;;;;12.50;10.17;;;;;;;-2.51;100.00;97904.53;5027236;28;20872;-74
2022/03/22 02:35:55;;;;;;;22.53;12.13;;;;;;;-2.31;100.00;97927.75;5010599;28;20539;-74
2022/03/22 02:38:21;;;;;;;11.90;10.43;;;;;;;-2.38;100.00;97924.41;5010522;28;20464;-74
2022/03/22 02:40:48;;;;;;;12.70;11.07;;;;;;;-2.33;100.00;97916.81;5042897;28;20478;-74
2022/03/22 02:43:16;;;;;;;14.77;9.83;;;;;;;-2.47;100.00;97916.06;5024491;28;20467;-74
2022/03/22 02:45:42;;;;;;;13.77;10.37;;;;;;;-2.93;100.00;97873.97;5010222;28;20456;-74
2022/03/22 02:48:11;;;;;;;14.37;10.90;;;;;;;-2.59;100.00;97901.34;5010396;28;20487;-74
2022/03/22 02:50:37;;;;;;;13.93;10.20;;;;;;;-2.50;100.00;97908.69;5027578;28;20865;-74
2022/03/22 02:53:04;;;;;;;15.20;10.87;;;;;;;-2.40;100.00;97910.88;5030120;28;20469;-74
2022/03/22 02:55:32;;;;;;;12.07;10.23;;;;;;;-2.45;100.00;97915.84;5029268;28;21037;-74
2022/03/22 02:58:00;;;;;;;11.53;9.40;;;;;;;-2.81;100.00;97877.50;5019157;28;20487;-74
2022/03/22 03:00:26;;;;;;;13.43;9.97;;;;;;;-2.59;100.00;97916.88;5029955;28;20923;-74
2022/03/22 03:02:53;;;;;;;15.90;9.27;;;;;;;-2.75;100.00;97885.25;5030026;28;20426;-74
2022/03/22 03:05:21;;;;;;;14.90;11.27;;;;;;;-2.91;100.00;97921.91;5016583;28;20460;-74
2022/03/22 03:07:49;;;;;;;15.70;9.33;;;;;;;-3.04;100.00;97921.91;5023082;28;20526;-74
2022/03/22 03:10:16;;;;;;;14.77;9.50;;;;;;;-3.43;100.00;97833.00;5011709;28;20541;-74
2022/03/22 03:12:42;;;;;;;13.17;11.83;;;;;;;-3.14;100.00;97880.94;5031186;28;20426;-74
2022/03/22 03:15:10;;;;;;;13.03;10.27;;;;;;;-3.09;100.00;97911.34;5029607;28;20473;-74
2022/03/22 03:17:38;;;;;;;11.73;9.40;;;;;;;-3.20;100.00;97912.78;5029658;28;20484;-74
2022/03/22 03:20:06;;;;;;;12.53;10.80;;;;;;;-3.00;100.00;97910.97;5029748;28;20587;-74
2022/03/22 03:22:34;;;;;;;12.23;10.20;;;;;;;-2.86;100.00;97898.81;5020579;28;20530;-74
2022/03/22 03:25:00;;;;;;;16.47;10.80;;;;;;;-2.82;100.00;97888.84;5026014;28;20524;-74
2022/03/22 03:27:27;;;;;;;12.40;9.97;;;;;;;-3.08;100.00;97877.53;5024502;28;20466;-74
2022/03/22 03:29:54;;;;;;;15.90;9.70;;;;;;;-3.01;100.00;97916.34;5022748;28;20785;-74
2022/03/22 03:32:21;;;;;;;11.43;10.23;;;;;;;-3.27;100.00;97906.78;5008980;28;20836;-74
2022/03/22 03:34:47;;;;;;;16.53;11.30;;;;;;;-3.45;100.00;97920.31;4993936;28;20503;-74
2022/03/22 03:37:15;;;;;;;13.07;10.20;;;;;;;-3.45;100.00;97889.28;5020741;28;20446;-74
2022/03/22 03:39:41;;;;;;;13.90;10.90;;;;;;;-3.28;100.00;97893.06;5026659;28;20502;-74
2022/03/22 03:42:09;;;;;;;13.13;10.40;;;;;;;-3.25;100.00;97919.53;5009816;28;20865;-74
2022/03/22 03:47:23;;;;;;;17.07;11.17;;;;;;;-3.22;100.00;97925.09;5057094;28;21017;-74
2022/03/22 03:49:53;;;;;;;12.83;10.93;;;;;;;-3.36;100.00;97926.06;5022759;28;20452;-74
2022/03/22 03:52:31;;;;;;;14.53;10.23;;;;;;;-3.59;100.00;97911.75;5028367;28;20447;-74
2022/03/22 03:55:03;;;;;;;17.17;11.93;;;;;;;-3.54;100.00;97921.47;5033368;28;20950;-74
2022/03/22 03:57:30;;;;;;;11.60;10.40;;;;;;;-3.49;100.00;97924.25;5003613;28;20467;-74
2022/03/22 03:59:56;;;;;;;15.00;11.87;;;;;;;-3.37;100.00;97921.91;5033218;28;20463;-74
2022/03/22 04:02:23;;;;;;;13.40;10.57;;;;;;;-3.26;100.00;97929.06;5033153;28;20803;-74
2022/03/22 04:04:53;;;;;;;16.33;12.23;;;;;;;-3.72;100.00;97836.00;5032848;28;20566;-74
2022/03/22 04:07:32;;;;;;;20.37;14.80;;;;;;;-3.57;100.00;97867.59;5032987;28;20470;-74
2022/03/22 04:09:58;;;;;;;20.40;14.23;;;;;;;-3.02;100.00;97938.81;5032884;28;20470;-74
2022/03/22 04:12:26;;;;;;;17.20;13.53;;;;;;;-3.41;100.00;97906.00;5034496;28;20541;-74
2022/03/22 04:14:53;;;;;;;14.77;13.23;;;;;;;-3.29;100.00;97934.63;5034182;28;20889;-74
2022/03/22 04:17:20;;;;;;;18.77;14.93;;;;;;;-3.46;100.00;97936.81;5025982;28;20850;-74
2022/03/22 04:19:48;;;;;;;25.70;14.83;;;;;;;-3.40;100.00;97940.41;4997349;28;20469;-74
2022/03/22 04:22:16;;;;;;;16.97;12.00;;;;;;;-3.41;100.00;97936.22;5032791;28;21012;-73
2022/03/22 04:25:00;;;;;;;19.53;15.40;;;;;;;-3.48;100.00;97931.03;5032876;28;20794;-74
2022/03/22 04:33:15;;;;;;;17.20;12.47;;;;;;;-3.64;100.00;97923.66;5016107;28;20519;-74
2022/03/22 04:35:41;;;;;;;18.73;12.17;;;;;;;-3.66;100.00;97920.47;5057474;28;21032;-74
2022/03/22 04:38:08;;;;;;;18.77;12.83;;;;;;;-3.79;100.00;97916.06;5016001;28;20549;-74
2022/03/22 04:40:35;;;;;;;18.87;13.20;;;;;;;-4.00;100.00;97880.84;5032417;28;20439;-74
2022/03/22 04:43:02;;;;;;;15.83;12.20;;;;;;;-3.85;100.00;97916.06;5035906;28;20489;-74
2022/03/22 04:45:30;;;;;;;15.47;12.13;;;;;;;-3.93;100.00;97898.94;5033618;28;20520;-74
2022/03/22 04:47:57;;;;;;;17.37;12.30;;;;;;;-4.04;100.00;97909.81;5027128;28;20423;-74
2022/03/22 04:50:23;;;;;;;16.60;11.70;;;;;;;-3.94;100.00;97929.13;4996290;28;20454;-74
2022/03/22 04:58:22;;;;;;;19.83;11.33;;;;;;;-4.28;100.00;97911.91;5030141;28;20549;-74
2022/03/22 05:00:49;;;;;;;16.37;12.00;;;;;;;-4.10;100.00;97906.25;5028962;28;20843;-74
2022/03/22 05:03:16;;;;;;;15.43;11.70;;;;;;;-4.04;100.00;97899.50;5055945;28;20517;-73
2022/03/22 05:08:28;;;;;;;16.20;10.93;;;;;;;-4.19;100.00;97912.56;5018831;28;20447;-74
2022/03/22 05:10:55;;;;;;;17.57;11.97;;;;;;;-4.12;100.00;97910.00;5008223;28;20468;-74
2022/03/22 05:13:22;;;;;;;14.20;11.83;;;;;;;-3.88;100.00;97941.25;5012626;28;20442;-74
2022/03/22 05:15:49;;;;;;;14.07;11.90;;;;;;;-4.22;100.00;97933.59;5012350;28;21114;-74
2022/03/22 05:18:15;;;;;;;15.00;10.03;;;;;;;-4.16;100.00;97948.31;5029799;28;20460;-74
2022/03/22 05:20:43;;;;;;;16.10;11.87;;;;;;;-4.37;100.00;97946.63;5015516;28;20434;-74
2022/03/22 05:23:10;;;;;;;17.70;14.00;;;;;;;-4.25;100.00;97936.56;5021877;28;20428;-73
2022/03/22 05:25:36;;;;;;;17.40;13.57;;;;;;;-4.35;100.00;97905.94;5011884;28;20494;-74
2022/03/22 05:28:03;;;;;;;16.13;12.60;;;;;;;-3.98;100.00;97947.81;5013483;28;20440;-73
2022/03/22 05:30:31;;;;;;;23.03;13.63;;;;;;;-3.98;100.00;97953.75;5031502;28;20443;-73
2022/03/22 05:32:58;;;;;;;16.03;12.43;;;;;;;-4.01;100.00;97933.47;5015991;28;20996;-74
2022/03/22 05:35:25;;;;;;;25.10;15.20;;;;;;;-3.82;100.00;97957.00;5012889;28;21053;-73
2022/03/22 05:37:52;;;;;;;20.20;14.67;;;;;;;-3.79;100.00;97959.19;5028886;28;20427;-73
2022/03/22 05:40:19;;;;;;;20.77;15.37;;;;;;;-3.86;100.00;97951.44;5031414;28;20463;-73
2022/03/22 05:42:46;;;;;;;22.10;14.90;;;;;;;-3.75;100.00;97944.88;5016430;28;20448;-74
2022/03/22 05:45:13;;;;;;;22.30;14.70;;;;;;;-3.84;100.00;97925.41;5044269;28;20479;-73
2022/03/22 05:47:39;;;;;;;22.20;14.50;;;;;;;-4.01;100.00;97937.84;5011658;28;20439;-74
2022/03/22 05:50:07;;;;;;;18.07;13.97;;;;;;;-3.89;100.00;97933.72;5031128;28;20435;-74
2022/03/22 05:52:47;;;;;;;26.13;13.27;;;;;;;-3.86;100.00;97928.19;5017788;28;20430;-73
2022/03/22 05:55:14;;;;;;;17.73;12.07;;;;;;;-3.76;100.00;97930.38;5031155;28;20503;-73
2022/03/22 05:57:41;;;;;;;20.77;13.97;;;;;;;-3.51;100.00;97971.97;5025418;28;20470;-73
2022/03/22 06:00:09;;;;;;;43.70;26.20;;;;;;;-3.58;100.00;97966.81;5023487;28;21030;-73
2022/03/22 06:02:37;;;;;;;35.97;22.53;;;;;;;-3.32;100.00;97968.66;5030845;28;20478;-74
2022/03/22 06:05:09;;;;;;;40.53;23.30;;;;;;;-3.41;100.00;97967.25;5030776;28;20467;-74
2022/03/22 06:07:36;;;;;;;43.93;25.47;;;;;;;-3.61;100.00;97962.81;5024148;28;20450;-74
2022/03/22 06:10:05;;;;;;;40.33;23.60;;;;;;;-3.42;100.00;97965.66;5012510;28;20475;-74
2022/03/22 06:12:39;;;;;;;21.00;16.30;;;;;;;-3.33;100.00;97969.66;5032108;28;20522;-73
2022/03/22 06:15:17;;;;;;;32.83;16.53;;;;;;;-3.25;100.00;97969.44;5031125;28;20515;-74
2022/03/22 06:17:52;;;;;;;22.00;14.83;;;;;;;-3.10;100.00;97975.22;5030804;28;20442;-74
2022/03/22 06:20:20;;;;;;;28.90;17.50;;;;;;;-3.34;100.00;97930.06;5014249;28;20470;-74
2022/03/22 06:22:48;;;;;;;23.20;17.17;;;;;;;-3.03;100.00;97976.03;5020063;28;20946;-74
2022/03/22 06:25:16;;;;;;;26.00;16.23;;;;;;;-3.09;100.00;97937.22;5016198;28;20463;-73
2022/03/22 06:27:45;;;;;;;20.87;15.47;;;;;;;-3.02;100.00;97976.84;5030649;28;20423;-73
2022/03/22 06:30:15;;;;;;;21.60;15.30;;;;;;;-2.32;100.00;97983.16;5014026;28;20538;-72
2022/03/22 06:32:43;;;;;;;27.33;17.03;;;;;;;-1.84;100.00;97962.88;5030209;28;20534;-73
2022/03/22 06:35:14;;;;;;;64.57;31.90;;;;;;;-1.47;100.00;97970.84;5050115;28;20451;-72
2022/03/22 06:37:41;;;;;;;61.83;32.97;;;;;;;-1.42;100.00;97989.19;5029142;28;20944;-72
2022/03/22 06:40:09;;;;;;;44.00;26.07;;;;;;;-1.60;100.00;97999.47;5010479;28;20543;-72
2022/03/22 06:42:37;;;;;;;34.17;20.50;;;;;;;-1.75;100.00;97989.34;5026295;28;20528;-72
2022/03/22 06:45:05;;;;;;;25.60;20.60;;;;;;;-1.67;100.00;97990.91;5005702;28;20470;-72
2022/03/22 06:47:32;;;;;;;22.33;16.43;;;;;;;-1.69;100.00;97992.94;5028960;28;20936;-71
2022/03/22 06:50:00;;;;;;;27.37;19.27;;;;;;;-1.66;100.00;97995.09;5030289;28;20931;-71
2022/03/22 06:52:27;;;;;;;26.07;15.77;;;;;;;-1.51;100.00;97995.63;5030034;28;20534;-72
2022/03/22 06:54:54;;;;;;;26.37;14.43;;;;;;;-1.50;100.00;97984.25;5029983;28;21017;-72
2022/03/22 06:57:21;;;;;;;28.10;14.60;;;;;;;-1.49;100.00;97978.84;5031434;28;20432;-72
2022/03/22 06:59:48;;;;;;;25.10;15.77;;;;;;;-1.22;100.00;97989.84;5030012;28;20459;-72
2022/03/22 07:02:15;;;;;;;20.60;13.97;;;;;;;-1.19;100.00;97962.72;5027158;28;20494;-72
2022/03/22 07:04:41;;;;;;;20.03;14.77;;;;;;;-0.67;100.00;97994.44;5020042;28;20470;-73
2022/03/22 07:07:08;;;;;;;16.73;13.30;;;;;;;-0.58;100.00;97971.63;5016790;28;20553;-73
2022/03/22 07:09:35;;;;;;;21.03;13.87;;;;;;;-0.45;100.00;97942.91;5019722;28;20475;-73
2022/03/22 07:12:01;;;;;;;24.13;13.87;;;;;;;0.18;100.00;97982.41;5010117;28;20551;-72
2022/03/22 07:14:28;;;;;;;21.90;13.73;;;;;;;0.61;100.00;98004.88;5020496;28;21079;-72
2022/03/22 07:16:55;;;;;;;15.90;12.60;;;;;;;0.66;100.00;97994.59;5016633;28;20439;-73
2022/03/22 07:19:23;;;;;;;21.07;14.87;;;;;;;1.34;100.00;98009.84;5029522;28;20543;-72
2022/03/22 07:21:50;;;;;;;22.13;14.33;;;;;;;1.45;100.00;97988.19;5017876;28;20435;-72
2022/03/22 07:24:18;;;;;;;26.10;17.03;;;;;;;1.96;100.00;98012.78;5018427;28;20490;-72
2022/03/22 07:26:46;;;;;;;20.43;17.07;;;;;;;2.20;100.00;98012.75;5028509;28;20478;-72
2022/03/22 07:29:15;;;;;;;26.10;18.87;;;;;;;2.29;98.09;97993.91;5016490;28;21039;-72
2022/03/22 07:31:42;;;;;;;21.10;15.67;;;;;;;2.38;98.06;97992.47;5019715;28;20936;-72
2022/03/22 07:34:11;;;;;;;29.97;18.53;;;;;;;2.43;97.30;98014.50;5004059;28;20461;-73
2022/03/22 07:36:39;;;;;;;23.13;18.10;;;;;;;2.77;95.73;97995.28;5029041;28;20821;-73
2022/03/22 07:39:17;;;;;;;22.07;18.97;;;;;;;3.32;92.00;98027.81;5029565;28;20463;-73
2022/03/22 07:41:43;;;;;;;24.20;15.80;;;;;;;3.37;88.85;97994.72;5024090;28;20494;-73
2022/03/22 07:44:13;;;;;;;21.90;17.37;;;;;;;3.12;86.64;98023.06;5035062;28;20877;-73
2022/03/22 07:46:40;;;;;;;22.60;15.97;;;;;;;3.32;84.49;98002.47;5032665;28;20482;-73
2022/03/22 07:54:39;;;;;;;17.97;14.00;;;;;;;3.79;78.03;97994.28;5010972;28;20492;-73
2022/03/22 07:57:09;;;;;;;14.53;12.40;;;;;;;3.96;75.64;97989.81;5022894;28;21077;-73
2022/03/22 07:59:36;;;;;;;16.97;12.07;;;;;;;4.09;72.41;98009.59;5036147;28;20549;-73
2022/03/22 08:02:03;;;;;;;18.43;12.73;;;;;;;4.41;74.52;98013.16;5022640;28;20440;-73
2022/03/22 08:04:30;;;;;;;20.10;13.00;;;;;;;4.24;70.54;97999.31;5029016;28;20491;-73
2022/03/22 08:06:57;;;;;;;12.90;11.53;;;;;;;4.70;70.93;98015.56;5046003;28;20447;-73
2022/03/22 08:09:23;;;;;;;14.80;10.17;;;;;;;5.01;68.00;98012.19;5026145;28;20439;-73
2022/03/22 08:11:50;;;;;;;9.47;8.47;;;;;;;4.61;64.12;98009.16;5035034;28;20522;-73
2022/03/22 08:14:19;;;;;;;12.30;10.00;;;;;;;4.70;63.74;97987.53;5032735;28;20459;-73
2022/03/22 08:16:46;;;;;;;14.97;9.70;;;;;;;5.21;63.10;98013.44;5030587;28;20468;-73
2022/03/22 08:19:17;;;;;;;10.73;9.53;;;;;;;5.56;62.12;98012.91;5006113;28;20503;-73
2022/03/22 08:21:46;;;;;;;12.03;9.77;;;;;;;6.00;62.02;98020.53;5026118;28;20512;-73
2022/03/22 08:24:13;;;;;;;9.97;8.50;;;;;;;5.82;59.04;98021.72;5017560;28;20435;-73
2022/03/22 08:26:39;;;;;;;10.70;9.57;;;;;;;6.18;59.61;98020.13;5022540;28;20466;-73
2022/03/22 08:29:07;;;;;;;10.43;8.30;;;;;;;6.25;57.44;98007.53;5058258;28;20432;-73
2022/03/22 08:31:35;;;;;;;16.13;10.40;;;;;;;6.44;58.33;98021.81;5002723;28;20445;-73
2022/03/22 08:34:03;;;;;;;9.63;8.73;;;;;;;6.46;54.83;98021.56;5017331;28;20854;-73
2022/03/22 08:36:33;;;;;;;8.07;7.17;;;;;;;6.46;49.95;98030.22;5031979;28;20535;-73
2022/03/22 08:39:00;;;;;;;15.20;10.50;;;;;;;6.52;48.48;98020.50;5023701;28;20526;-73
2022/03/22 08:41:27;;;;;;;10.97;8.57;;;;;;;6.65;48.43;98024.50;5019385;28;20470;-73
2022/03/22 08:43:54;;;;;;;11.80;8.17;;;;;;;7.09;47.52;98019.63;5020734;28;20535;-73
2022/03/22 08:46:24;;;;;;;8.73;7.57;;;;;;;6.94;45.03;98007.22;5029060;28;20448;-74
2022/03/22 08:48:52;;;;;;;8.60;7.60;;;;;;;7.04;45.81;98019.59;5000326;28;20446;-73
2022/03/22 08:51:24;;;;;;;11.30;8.50;;;;;;;6.96;45.49;97992.00;5022896;28;20451;-74
2022/03/22 08:53:54;;;;;;;7.70;6.90;;;;;;;7.34;45.83;98031.97;5023509;28;20451;-74
2022/03/22 08:56:22;;;;;;;7.37;6.60;;;;;;;7.40;43.20;98015.94;5024352;28;20507;-74
2022/03/22 08:58:53;;;;;;;8.60;6.50;;;;;;;7.24;43.16;98008.31;5026455;28;20452;-74
2022/03/22 09:01:27;;;;;;;10.30;7.73;;;;;;;7.31;42.49;98012.25;5040127;28;20461;-74
2022/03/22 09:06:39;;;;;;;9.77;7.97;;;;;;;7.64;42.05;98018.06;5028967;28;20455;-74
2022/03/22 09:09:09;;;;;;;8.23;7.43;;;;;;;7.39;42.68;98013.59;5037637;28;20501;-74
2022/03/22 09:11:37;;;;;;;10.23;8.30;;;;;;;7.43;42.84;98001.47;5021588;28;20489;-73
2022/03/22 09:14:04;;;;;;;9.33;8.17;;;;;;;7.55;41.96;97991.47;5032122;28;20481;-74
2022/03/22 09:16:32;;;;;;;9.00;7.90;;;;;;;7.54;42.18;98010.94;5018607;28;20536;-74
2022/03/22 09:18:59;;;;;;;9.23;7.47;;;;;;;7.44;42.17;97992.50;5004713;28;20433;-74
2022/03/22 09:21:26;;;;;;;9.40;8.10;;;;;;;7.43;43.45;97996.22;5021379;28;20469;-74
2022/03/22 09:23:54;;;;;;;9.60;7.93;;;;;;;7.52;41.75;97997.25;5020030;28;20441;-74
2022/03/22 09:26:21;;;;;;;7.80;6.87;;;;;;;7.97;42.58;98004.28;5018268;28;20767;-74
2022/03/22 09:28:52;;;;;;;7.27;6.50;;;;;;;7.77;41.86;97975.38;5003843;28;20505;-74
2022/03/22 09:31:23;;;;;;;9.80;8.37;;;;;;;8.11;43.34;97983.44;5025306;28;20464;-74
2022/03/22 09:33:51;;;;;;;8.80;7.57;;;;;;;7.77;41.96;97990.38;4995796;28;20433;-74
2022/03/22 09:36:18;;;;;;;7.67;6.53;;;;;;;7.91;40.47;97999.31;4995635;28;20468;-74
2022/03/22 09:38:46;;;;;;;12.07;8.47;;;;;;;8.20;41.50;97981.81;5011731;28;20535;-74
2022/03/22 09:41:14;;;;;;;8.60;7.63;;;;;;;8.30;41.20;98000.25;5014982;28;20936;-74
2022/03/22 09:43:46;;;;;;;8.00;7.30;;;;;;;8.35;42.33;97996.81;5054168;28;20420;-74
2022/03/22 09:46:18;;;;;;;10.30;7.80;;;;;;;8.34;41.12;97997.88;5027939;28;20458;-74
2022/03/22 09:48:47;;;;;;;8.73;7.93;;;;;;;8.72;42.34;97990.31;4999558;28;20545;-74
2022/03/22 09:54:01;;;;;;;10.93;8.80;;;;;;;8.42;41.43;97967.53;5010193;28;20527;-74
2022/03/22 09:56:30;;;;;;;8.17;7.00;;;;;;;8.36;41.25;97984.44;5023711;28;20787;-74
2022/03/22 09:59:03;;;;;;;10.23;8.00;;;;;;;8.52;41.11;97965.63;5028635;28;20501;-74
2022/03/22 10:01:31;;;;;;;10.17;8.40;;;;;;;8.87;41.38;97977.81;5020633;28;20464;-74
2022/03/22 10:04:12;;;;;;;8.47;7.43;;;;;;;8.72;40.72;97988.47;5024608;28;20472;-74
2022/03/22 10:06:50;;;;;;;10.80;8.23;;;;;;;9.07;40.73;97986.66;5012608;28;20520;-74
2022/03/22 10:09:31;;;;;;;10.07;7.97;;;;;;;8.72;40.65;97943.63;5006974;28;20483;-74
2022/03/22 10:11:58;;;;;;;10.70;8.50;;;;;;;8.97;40.68;97974.34;5019168;28;20995;-74
2022/03/22 10:14:37;;;;;;;11.63;8.73;;;;;;;9.19;41.58;97976.53;5021057;28;20551;-74
2022/03/22 10:17:20;;;;;;;9.77;8.77;;;;;;;9.25;40.99;97966.75;5010991;28;21057;-74
2022/03/22 10:19:49;;;;;;;9.47;8.47;;;;;;;9.22;40.66;97973.38;5025507;28;20555;-74
2022/03/22 10:22:22;;;;;;;8.10;7.30;;;;;;;9.29;40.73;97947.41;5012292;28;20425;-74
2022/03/22 10:24:51;;;;;;;10.07;9.03;;;;;;;9.53;41.57;97958.03;5012953;28;20500;-74
2022/03/22 10:27:29;;;;;;;8.33;7.63;;;;;;;9.72;39.50;97950.97;5021412;28;20532;-74
2022/03/22 10:30:17;;;;;;;9.00;8.10;;;;;;;9.63;40.24;97954.53;5012178;28;20446;-74
2022/03/22 10:32:50;;;;;;;10.73;7.20;;;;;;;9.35;39.12;97953.47;5043881;28;20437;-74
2022/03/22 10:35:23;;;;;;;12.17;7.33;;;;;;;9.77;40.49;97956.22;5027227;28;20484;-74
2022/03/22 10:37:55;;;;;;;8.80;7.50;;;;;;;9.84;39.81;97949.78;5023955;28;20464;-74
2022/03/22 10:40:27;;;;;;;9.43;7.60;;;;;;;9.59;38.62;97932.34;5020400;28;20969;-74
2022/03/22 10:42:58;;;;;;;8.37;7.43;;;;;;;9.90;39.00;97944.19;5018481;28;20523;-74
2022/03/22 10:45:30;;;;;;;10.27;8.23;;;;;;;9.90;38.30;97891.34;5052086;28;20496;-74
2022/03/22 10:47:59;;;;;;;8.20;6.87;;;;;;;10.05;36.40;97924.72;5022094;28;20446;-74
2022/03/22 10:50:26;;;;;;;7.07;6.40;;;;;;;10.24;35.16;97943.28;5015200;28;20512;-75
2022/03/22 10:52:55;;;;;;;6.77;6.13;;;;;;;10.39;36.50;97944.94;5016870;28;20519;-74
2022/03/22 10:55:24;;;;;;;9.30;8.30;;;;;;;10.63;36.94;97927.16;5033923;28;20471;-74
2022/03/22 10:57:56;;;;;;;8.40;7.20;;;;;;;10.48;34.46;97938.75;5013726;28;20513;-74
2022/03/22 11:00:24;;;;;;;6.30;5.70;;;;;;;10.85;34.75;97937.94;5024303;28;20964;-74
2022/03/22 11:02:53;;;;;;;8.47;6.80;;;;;;;10.81;34.55;97941.44;5003177;28;20542;-74
2022/03/22 11:05:22;;;;;;;14.40;6.60;;;;;;;10.57;34.25;97923.03;5019557;28;20465;-74
2022/03/22 11:07:52;;;;;;;6.90;6.30;;;;;;;10.56;33.68;97935.47;5018639;28;20863;-74
2022/03/22 11:10:25;;;;;;;11.13;7.03;;;;;;;10.88;35.07;97933.94;5018889;28;20541;-74
2022/03/22 11:12:52;;;;;;;9.43;7.90;;;;;;;10.57;34.01;97933.59;5021224;28;20436;-74
2022/03/22 11:15:20;;;;;;;8.70;6.40;;;;;;;10.86;34.63;97934.22;5016535;28;20473;-75
2022/03/22 11:17:49;;;;;;;6.50;5.83;;;;;;;10.72;33.62;97911.44;5036151;28;20437;-75
2022/03/22 11:20:16;;;;;;;7.53;6.93;;;;;;;10.98;34.32;97906.53;5039517;28;21021;-75
2022/03/22 11:22:48;;;;;;;7.40;6.70;;;;;;;11.31;34.23;97909.94;5020725;28;20928;-75
2022/03/22 11:25:18;;;;;;;7.70;6.37;;;;;;;11.39;33.43;97910.06;5011679;28;20830;-75
2022/03/22 11:27:59;;;;;;;8.30;7.40;;;;;;;11.31;33.32;97891.41;5022066;28;20447;-75
2022/03/22 11:30:27;;;;;;;10.17;8.33;;;;;;;10.95;33.20;97907.88;5007948;28;20456;-75
2022/03/22 11:35:51;;;;;;;8.10;7.30;;;;;;;12.18;33.01;97909.91;5002797;28;20499;-75
2022/03/22 11:38:37;;;;;;;7.87;6.67;;;;;;;12.65;32.11;97918.44;5023160;28;20544;-75
2022/03/22 11:43:49;;;;;;;7.60;6.73;;;;;;;12.61;31.79;97912.97;5055026;28;20436;-75
2022/03/22 11:46:16;;;;;;;7.13;6.23;;;;;;;12.92;31.53;97913.03;5049710;28;20449;-74
2022/03/22 11:48:42;;;;;;;7.63;6.93;;;;;;;13.50;30.71;97909.50;5019662;28;20540;-75
2022/03/22 11:51:10;;;;;;;10.43;6.93;;;;;;;13.35;30.16;97893.94;5023580;28;20480;-75
2022/03/22 11:53:44;;;;;;;10.00;9.00;;;;;;;12.60;31.17;97889.38;5023263;28;20425;-75
2022/03/22 11:56:12;;;;;;;6.93;6.23;;;;;;;13.53;31.27;97905.47;5011539;28;20522;-75
2022/03/22 11:58:51;;;;;;;7.80;6.80;;;;;;;14.40;29.76;97906.47;5023277;28;20449;-75
2022/03/22 12:01:35;;;;;;;6.63;5.93;;;;;;;13.90;29.27;97889.03;5026078;28;20469;-75
2022/03/22 12:04:14;;;;;;;8.63;6.20;;;;;;;14.41;27.80;97914.13;5023196;28;20513;-75